createdAt,value
2017-08-01T00:00:34.128Z,99.99
2017-08-01T00:01:34.127Z,99.99
2017-08-01T00:02:34.135Z,99.99
2017-08-01T00:03:34.157Z,99.99
2017-08-01T00:04:34.117Z,99.99
2017-08-01T00:05:34.120Z,99.99
2017-08-01T00:06:33.796Z,99.99
2017-08-01T00:07:34.123Z,99.99
2017-08-01T00:08:33.794Z,99.99
2017-08-01T00:09:34.111Z,99.99
2017-08-01T00:10:33.791Z,99.99
2017-08-01T00:11:34.110Z,99.99
2017-08-01T00:12:33.786Z,99.99
2017-08-01T00:13:34.109Z,99.99
2017-08-01T00:14:34.106Z,99.99
2017-08-01T00:15:33.780Z,99.99
2017-08-01T00:16:34.100Z,99.99
2017-08-01T00:17:33.790Z,99.99
2017-08-01T00:18:34.100Z,99.99
2017-08-01T00:19:34.094Z,99.99
2017-08-01T00:20:34.104Z,99.99
2017-08-01T00:21:34.112Z,99.99
2017-08-01T00:22:33.773Z,99.99
2017-08-01T00:23:34.113Z,99.99
2017-08-01T00:24:33.772Z,99.99
2017-08-01T00:25:34.091Z,99.99
2017-08-01T00:26:34.093Z,99.99
2017-08-01T00:27:34.103Z,99.99
2017-08-01T00:28:34.091Z,99.99
2017-08-01T00:29:33.761Z,99.99
2017-08-01T00:30:33.755Z,99.99
2017-08-01T00:31:34.081Z,99.99
2017-08-01T00:32:33.751Z,99.99
2017-08-01T00:33:34.075Z,99.99
2017-08-01T00:34:34.072Z,99.3
2017-08-01T00:35:34.072Z,99.78
2017-08-01T00:36:33.771Z,97.96
2017-08-01T00:37:33.745Z,97.66
2017-08-01T00:38:34.068Z,98.72
2017-08-01T00:39:33.742Z,99.99
2017-08-01T00:40:34.062Z,99.99
2017-08-01T00:41:34.070Z,99.99
2017-08-01T00:42:34.063Z,99.99
2017-08-01T00:43:34.059Z,99.99
2017-08-01T00:44:34.057Z,99.99
2017-08-01T00:45:34.057Z,99.99
2017-08-01T00:46:34.064Z,99.99
2017-08-01T00:47:34.050Z,99.99
2017-08-01T00:48:33.739Z,99.99
2017-08-01T00:49:34.053Z,99.99
2017-08-01T00:50:34.050Z,99.99
2017-08-01T00:51:34.046Z,99.99
2017-08-01T00:52:34.070Z,99.99
2017-08-01T00:53:34.071Z,99.99
2017-08-01T00:54:33.722Z,99.99
2017-08-01T00:55:34.039Z,99.99
2017-08-01T00:56:34.036Z,99.99
2017-08-01T00:57:33.715Z,99.99
2017-08-01T00:58:34.033Z,99.99
2017-08-01T00:59:34.033Z,99.99
2017-08-01T01:00:34.033Z,99.99
2017-08-01T01:01:34.030Z,99.99
2017-08-01T01:02:34.051Z,99.99
2017-08-01T01:03:34.027Z,99.99
2017-08-01T01:04:34.023Z,99.99
2017-08-01T01:05:33.718Z,99.99
2017-08-01T01:06:34.023Z,99.99
2017-08-01T01:07:34.018Z,99.99
2017-08-01T01:08:34.023Z,99.99
2017-08-01T01:09:33.703Z,99.99
2017-08-01T01:10:33.714Z,99.99
2017-08-01T01:11:34.023Z,99.99
2017-08-01T01:12:34.011Z,99.99
2017-08-01T01:13:34.017Z,99.99
2017-08-01T01:14:34.025Z,99.99
2017-08-01T01:15:34.007Z,99.99
2017-08-01T01:16:33.695Z,99.99
2017-08-01T01:17:33.679Z,99.99
2017-08-01T01:18:34.004Z,99.99
2017-08-01T01:19:34.011Z,99.99
2017-08-01T01:20:33.994Z,99.99
2017-08-01T01:21:33.994Z,99.99
2017-08-01T01:22:34.013Z,99.05
2017-08-01T01:23:33.669Z,99.99
2017-08-01T01:24:33.994Z,99.99
2017-08-01T01:25:33.999Z,99.99
2017-08-01T01:26:33.984Z,99.99
2017-08-01T01:27:33.985Z,99.99
2017-08-01T01:28:33.981Z,99.73
2017-08-01T01:29:33.658Z,99.99
2017-08-01T01:30:34.000Z,99.99
2017-08-01T01:31:33.653Z,99.99
2017-08-01T01:32:33.976Z,99.99
2017-08-01T01:33:33.670Z,99.99
2017-08-01T01:34:33.970Z,99.99
2017-08-01T01:35:33.972Z,99.99
2017-08-01T01:36:33.662Z,99.99
2017-08-01T01:37:33.964Z,99.99
2017-08-01T01:38:33.980Z,99.99
2017-08-01T01:39:33.983Z,99.99
2017-08-01T01:40:33.657Z,99.99
2017-08-01T01:41:33.991Z,99.99
2017-08-01T01:42:33.964Z,99.99
2017-08-01T01:43:33.957Z,99.99
2017-08-01T01:44:33.973Z,99.99
2017-08-01T01:45:33.965Z,99.99
2017-08-01T01:46:33.947Z,99.99
2017-08-01T01:47:33.954Z,99.99
2017-08-01T01:48:33.940Z,99.99
2017-08-01T01:49:33.942Z,99.99
2017-08-01T01:50:33.943Z,99.99
2017-08-01T01:51:33.937Z,99.99
2017-08-01T01:52:33.947Z,99.99
2017-08-01T01:53:33.639Z,99.99
2017-08-01T01:54:33.608Z,99.99
2017-08-01T01:55:33.930Z,99.99
2017-08-01T01:56:33.942Z,99.99
2017-08-01T01:57:33.923Z,99.99
2017-08-01T01:58:33.920Z,99.99
2017-08-01T01:59:33.923Z,99.99
2017-08-01T02:00:33.596Z,99.99
2017-08-01T02:01:33.931Z,99.99
2017-08-01T02:02:33.593Z,99.99
2017-08-01T02:03:33.590Z,99.99
2017-08-01T02:04:33.909Z,99.99
2017-08-01T02:05:33.905Z,99.99
2017-08-01T02:06:33.907Z,99.99
2017-08-01T02:07:33.903Z,99.99
2017-08-01T02:08:33.899Z,99.99
2017-08-01T02:09:33.916Z,99.99
2017-08-01T02:10:33.575Z,99.99
2017-08-01T02:11:33.597Z,99.99
2017-08-01T02:12:33.569Z,99.99
2017-08-01T02:13:33.565Z,99.99
2017-08-01T02:14:33.886Z,99.99
2017-08-01T02:15:33.884Z,99.99
2017-08-01T02:16:33.884Z,99.99
2017-08-01T02:17:33.879Z,99.99
2017-08-01T02:18:33.561Z,99.99
2017-08-01T02:19:33.875Z,99.99
2017-08-01T02:20:33.881Z,99.99
2017-08-01T02:21:33.868Z,99.99
2017-08-01T02:22:33.869Z,99.99
2017-08-01T02:23:33.543Z,99.99
2017-08-01T02:24:33.550Z,99.99
2017-08-01T02:25:33.858Z,99.99
2017-08-01T02:26:33.859Z,99.99
2017-08-01T02:27:33.860Z,99.99
2017-08-01T02:28:33.533Z,99.99
2017-08-01T02:29:33.536Z,99.99
2017-08-01T02:30:33.526Z,99.99
2017-08-01T02:31:33.525Z,99.99
2017-08-01T02:32:33.842Z,99.99
2017-08-01T02:33:33.856Z,99.99
2017-08-01T02:34:33.839Z,99.99
2017-08-01T02:35:33.848Z,99.99
2017-08-01T02:36:33.513Z,99.99
2017-08-01T02:37:33.849Z,99.99
2017-08-01T02:38:33.846Z,99.99
2017-08-01T02:39:33.528Z,99.99
2017-08-01T02:40:33.505Z,99.99
2017-08-01T02:41:33.502Z,99.99
2017-08-01T02:42:33.511Z,99.99
2017-08-01T02:43:33.820Z,99.99
2017-08-01T02:44:33.821Z,99.99
2017-08-01T02:45:33.814Z,99.99
2017-08-01T02:46:33.499Z,99.99
2017-08-01T02:47:33.491Z,99.99
2017-08-01T02:48:33.811Z,99.99
2017-08-01T02:49:33.805Z,99.99
2017-08-01T02:50:33.496Z,99.99
2017-08-01T02:51:33.484Z,99.99
2017-08-01T02:52:33.800Z,99.99
2017-08-01T02:53:33.797Z,99.99
2017-08-01T02:54:33.475Z,99.99
2017-08-01T02:55:33.792Z,99.99
2017-08-01T02:56:33.802Z,99.99
2017-08-01T02:57:33.476Z,99.99
2017-08-01T02:58:33.788Z,99.99
2017-08-01T02:59:33.780Z,99.99
2017-08-01T03:00:33.795Z,99.99
2017-08-01T03:01:33.787Z,99.99
2017-08-01T03:02:33.774Z,99.99
2017-08-01T03:03:33.768Z,99.99
2017-08-01T03:04:33.765Z,99.99
2017-08-01T03:05:33.775Z,99.99
2017-08-01T03:06:33.766Z,99.99
2017-08-01T03:07:33.459Z,99.99
2017-08-01T03:08:33.759Z,99.99
2017-08-01T03:09:33.769Z,99.99
2017-08-01T03:10:33.435Z,99.99
2017-08-01T03:11:33.773Z,99.99
2017-08-01T03:12:33.753Z,99.99
2017-08-01T03:13:33.760Z,99.99
2017-08-01T03:14:33.747Z,99.99
2017-08-01T03:15:33.746Z,99.99
2017-08-01T03:16:33.746Z,99.99
2017-08-01T03:17:33.739Z,99.99
2017-08-01T03:18:33.755Z,99.99
2017-08-01T03:19:33.417Z,99.99
2017-08-01T03:20:33.732Z,99.99
2017-08-01T03:21:33.409Z,99.99
2017-08-01T03:22:33.436Z,99.99
2017-08-01T03:23:33.725Z,99.99
2017-08-01T03:24:33.725Z,99.99
2017-08-01T03:25:33.753Z,99.99
2017-08-01T03:26:33.729Z,99.99
2017-08-01T03:27:33.713Z,99.99
2017-08-01T03:28:33.723Z,99.99
2017-08-01T03:29:33.729Z,99.99
2017-08-01T03:30:33.715Z,99.99
2017-08-01T03:31:33.732Z,99.99
2017-08-01T03:32:33.753Z,99.99
2017-08-01T03:33:33.377Z,99.99
2017-08-01T03:34:33.375Z,99.99
2017-08-01T03:35:33.692Z,99.99
2017-08-01T03:36:33.688Z,99.99
2017-08-01T03:37:33.380Z,99.99
2017-08-01T03:38:33.724Z,99.99
2017-08-01T03:39:33.686Z,99.99
2017-08-01T03:40:33.678Z,99.99
2017-08-01T03:41:33.354Z,99.99
2017-08-01T03:42:33.676Z,99.99
2017-08-01T03:43:33.676Z,99.99
2017-08-01T03:44:33.669Z,99.99
2017-08-01T03:45:33.678Z,99.99
2017-08-01T03:46:33.343Z,99.99
2017-08-01T03:47:33.340Z,99.99
2017-08-01T03:48:33.657Z,99.99
2017-08-01T03:49:33.334Z,99.99
2017-08-01T03:50:33.654Z,99.99
2017-08-01T03:51:33.329Z,99.99
2017-08-01T03:52:33.662Z,99.99
2017-08-01T03:53:33.324Z,99.99
2017-08-01T03:54:33.642Z,99.99
2017-08-01T03:55:33.639Z,99.99
2017-08-01T03:56:33.642Z,99.99
2017-08-01T03:57:33.312Z,99.99
2017-08-01T03:58:33.632Z,99.99
2017-08-01T03:59:33.650Z,99.99
2017-08-01T04:00:33.634Z,99.99
2017-08-01T04:01:33.648Z,99.99
2017-08-01T04:02:33.616Z,99.99
2017-08-01T04:03:33.294Z,99.99
2017-08-01T04:04:33.635Z,99.99
2017-08-01T04:05:33.289Z,99.99
2017-08-01T04:06:33.306Z,99.99
2017-08-01T04:07:33.302Z,99.99
2017-08-01T04:08:33.599Z,99.99
2017-08-01T04:09:33.602Z,99.99
2017-08-01T04:10:33.294Z,99.99
2017-08-01T04:11:33.596Z,99.99
2017-08-01T04:12:33.589Z,99.99
2017-08-01T04:13:33.267Z,99.99
2017-08-01T04:14:33.592Z,99.99
2017-08-01T04:15:33.264Z,99.99
2017-08-01T04:16:33.582Z,99.99
2017-08-01T04:17:33.602Z,99.99
2017-08-01T04:18:33.617Z,99.99
2017-08-01T04:19:33.250Z,99.99
2017-08-01T04:20:33.568Z,99.99
2017-08-01T04:21:33.245Z,99.99
2017-08-01T04:22:33.241Z,99.99
2017-08-01T04:23:33.567Z,99.99
2017-08-01T04:24:33.574Z,99.99
2017-08-01T04:25:33.560Z,99.99
2017-08-01T04:26:33.551Z,99.99
2017-08-01T04:27:33.551Z,99.99
2017-08-01T04:28:33.231Z,99.99
2017-08-01T04:29:33.223Z,99.99
2017-08-01T04:30:33.538Z,99.99
2017-08-01T04:31:33.540Z,99.99
2017-08-01T04:32:33.543Z,99.99
2017-08-01T04:33:33.549Z,99.99
2017-08-01T04:34:33.215Z,99.99
2017-08-01T04:35:33.211Z,99.99
2017-08-01T04:36:33.539Z,99.99
2017-08-01T04:37:33.527Z,99.99
2017-08-01T04:38:33.524Z,99.99
2017-08-01T04:39:33.539Z,99.99
2017-08-01T04:40:33.525Z,99.99
2017-08-01T04:41:33.218Z,99.99
2017-08-01T04:42:33.518Z,99.99
2017-08-01T04:43:33.534Z,99.99
2017-08-01T04:44:33.514Z,99.99
2017-08-01T04:45:33.511Z,99.99
2017-08-01T04:46:33.511Z,99.99
2017-08-01T04:47:33.534Z,99.99
2017-08-01T04:48:33.504Z,99.99
2017-08-01T04:49:33.506Z,99.99
2017-08-01T04:50:33.184Z,99.99
2017-08-01T04:51:33.506Z,99.99
2017-08-01T04:52:33.506Z,99.99
2017-08-01T04:53:33.505Z,99.99
2017-08-01T04:54:33.503Z,99.99
2017-08-01T04:55:33.501Z,99.99
2017-08-01T04:56:33.511Z,99.99
2017-08-01T04:57:33.503Z,99.99
2017-08-01T04:58:33.487Z,99.99
2017-08-01T04:59:33.167Z,99.99
2017-08-01T05:00:33.501Z,99.99
2017-08-01T05:01:33.480Z,99.99
2017-08-01T05:02:33.159Z,99.99
2017-08-01T05:03:33.484Z,99.99
2017-08-01T05:04:33.470Z,99.99
2017-08-01T05:05:33.150Z,99.99
2017-08-01T05:06:33.498Z,99.99
2017-08-01T05:07:33.150Z,99.99
2017-08-01T05:08:33.486Z,99.99
2017-08-01T05:09:33.473Z,99.99
2017-08-01T05:10:33.489Z,99.99
2017-08-01T05:11:33.146Z,99.99
2017-08-01T05:12:33.464Z,99.99
2017-08-01T05:13:33.459Z,99.99
2017-08-01T05:14:33.468Z,99.99
2017-08-01T05:15:33.455Z,99.99
2017-08-01T05:16:33.453Z,99.99
2017-08-01T05:17:33.456Z,99.99
2017-08-01T05:18:33.129Z,99.99
2017-08-01T05:19:33.449Z,99.99
2017-08-01T05:20:33.134Z,99.99
2017-08-01T05:21:33.444Z,99.99
2017-08-01T05:22:33.467Z,99.99
2017-08-01T05:23:33.122Z,99.99
2017-08-01T05:24:33.443Z,99.99
2017-08-01T05:25:33.438Z,99.99
2017-08-01T05:26:33.132Z,99.99
2017-08-01T05:27:33.432Z,99.99
2017-08-01T05:28:33.437Z,99.99
2017-08-01T05:29:33.112Z,99.99
2017-08-01T05:30:33.435Z,99.99
2017-08-01T05:31:33.112Z,99.99
2017-08-01T05:32:33.429Z,99.99
2017-08-01T05:33:33.422Z,99.99
2017-08-01T05:34:33.420Z,99.99
2017-08-01T05:35:33.448Z,99.99
2017-08-01T05:36:33.422Z,99.99
2017-08-01T05:37:33.414Z,99.99
2017-08-01T05:38:33.415Z,99.99
2017-08-01T05:39:33.453Z,99.99
2017-08-01T05:40:33.412Z,99.99
2017-08-01T05:41:33.411Z,99.99
2017-08-01T05:42:33.090Z,99.99
2017-08-01T05:43:33.416Z,99.99
2017-08-01T05:44:33.404Z,99.99
2017-08-01T05:45:33.403Z,99.99
2017-08-01T05:46:33.422Z,99.99
2017-08-01T05:47:33.079Z,99.99
2017-08-01T05:48:33.402Z,99.99
2017-08-01T05:49:33.078Z,99.99
2017-08-01T05:50:33.410Z,99.99
2017-08-01T05:51:33.403Z,99.99
2017-08-01T05:52:33.074Z,99.99
2017-08-01T05:53:33.416Z,99.99
2017-08-01T05:54:33.391Z,99.99
2017-08-01T05:55:33.392Z,99.99
2017-08-01T05:56:33.440Z,99.99
2017-08-01T05:57:33.400Z,99.99
2017-08-01T05:58:33.404Z,99.99
2017-08-01T05:59:33.410Z,99.99
2017-08-01T06:00:33.406Z,99.99
2017-08-01T06:01:33.384Z,99.99
2017-08-01T06:02:33.066Z,99.99
2017-08-01T06:03:33.059Z,99.99
2017-08-01T06:04:33.384Z,99.99
2017-08-01T06:05:33.060Z,99.99
2017-08-01T06:06:33.072Z,97.96
2017-08-01T06:07:33.278Z,97.96
2017-08-01T06:08:33.470Z,98.44
2017-08-01T06:09:33.805Z,99.21
2017-08-01T06:10:33.052Z,99.01
2017-08-01T06:11:33.376Z,98.05
2017-08-01T06:12:33.374Z,96.8
2017-08-01T06:13:33.368Z,95.74
2017-08-01T06:14:33.376Z,95.94
2017-08-01T06:15:33.396Z,96.99
2017-08-01T06:16:33.376Z,97.09
2017-08-01T06:17:33.049Z,95.94
2017-08-01T06:18:33.048Z,95.55
2017-08-01T06:19:33.384Z,97.67
2017-08-01T06:20:33.368Z,98.1
2017-08-01T06:21:33.046Z,98.1
2017-08-01T06:22:33.370Z,98
2017-08-01T06:23:33.045Z,97.52
2017-08-01T06:24:33.366Z,97.71
2017-08-01T06:25:33.064Z,98.96
2017-08-01T06:26:33.365Z,98.96
2017-08-01T06:27:33.062Z,98.1
2017-08-01T06:28:33.042Z,97.62
2017-08-01T06:29:33.378Z,97.19
2017-08-01T06:30:33.361Z,94.59
2017-08-01T06:31:33.360Z,94.01
2017-08-01T06:32:33.378Z,93.53
2017-08-01T06:33:33.037Z,94.2
2017-08-01T06:34:33.362Z,94.97
2017-08-01T06:35:33.357Z,94.68
2017-08-01T06:36:33.364Z,95.17
2017-08-01T06:37:33.361Z,95.55
2017-08-01T06:38:33.037Z,95.74
2017-08-01T06:39:33.037Z,93.62
2017-08-01T06:40:33.374Z,93.77
2017-08-01T06:41:33.382Z,93.29
2017-08-01T06:42:33.358Z,92.94
2017-08-01T06:43:33.034Z,92.08
2017-08-01T06:44:33.360Z,90.34
2017-08-01T06:45:33.386Z,88.81
2017-08-01T06:46:33.035Z,88.17
2017-08-01T06:47:33.373Z,86.92
2017-08-01T06:48:33.358Z,86.15
2017-08-01T06:49:33.361Z,86.35
2017-08-01T06:50:33.036Z,85.86
2017-08-01T06:51:33.037Z,84.65
2017-08-01T06:52:33.042Z,83.25
2017-08-01T06:53:33.037Z,82.09
2017-08-01T06:54:33.045Z,78.85
2017-08-01T06:55:33.034Z,77.63
2017-08-01T06:56:33.360Z,76.18
2017-08-01T06:57:33.359Z,74.81
2017-08-01T06:58:33.360Z,73.3
2017-08-01T06:59:33.040Z,73.47
2017-08-01T07:00:33.364Z,73.82
2017-08-01T07:01:33.043Z,74.21
2017-08-01T07:02:33.366Z,73.33
2017-08-01T07:03:33.389Z,73.88
2017-08-01T07:04:33.373Z,74.55
2017-08-01T07:05:33.049Z,73.84
2017-08-01T07:06:33.374Z,74.62
2017-08-01T07:07:33.374Z,75.16
2017-08-01T07:08:33.378Z,75.16
2017-08-01T07:09:33.426Z,74.77
2017-08-01T07:10:33.062Z,74.38
2017-08-01T07:11:33.383Z,74.25
2017-08-01T07:12:33.400Z,74.1
2017-08-01T07:13:33.065Z,75.7
2017-08-01T07:14:33.389Z,76.28
2017-08-01T07:15:33.391Z,76.76
2017-08-01T07:16:33.071Z,76.67
2017-08-01T07:17:33.073Z,76.76
2017-08-01T07:18:33.394Z,77.05
2017-08-01T07:19:33.394Z,77.3
2017-08-01T07:20:33.395Z,77.59
2017-08-01T07:21:33.078Z,79.04
2017-08-01T07:22:33.399Z,78.36
2017-08-01T07:23:33.421Z,78.85
2017-08-01T07:24:33.424Z,79.24
2017-08-01T07:25:33.421Z,79.1
2017-08-01T07:26:33.085Z,80.45
2017-08-01T07:27:33.408Z,80.02
2017-08-01T07:28:33.418Z,81.09
2017-08-01T07:29:33.430Z,81.85
2017-08-01T07:30:33.417Z,82.43
2017-08-01T07:31:33.414Z,80.89
2017-08-01T07:32:33.416Z,79.29
2017-08-01T07:33:33.097Z,76.63
2017-08-01T07:34:33.417Z,73.26
2017-08-01T07:35:33.095Z,69.46
2017-08-01T07:36:33.445Z,63.95
2017-08-01T07:37:33.424Z,62.16
2017-08-01T07:38:33.433Z,59.41
2017-08-01T07:39:33.199Z,58.31
2017-08-01T07:40:33.428Z,53.69
2017-08-01T07:41:33.136Z,53.14
2017-08-01T07:42:33.432Z,50.63
2017-08-01T07:43:33.443Z,49.22
2017-08-01T07:44:33.439Z,47.85
2017-08-01T07:45:33.125Z,45.95
2017-08-01T07:46:33.147Z,46.75
2017-08-01T07:47:33.136Z,43.48
2017-08-01T07:48:33.139Z,42.83
2017-08-01T07:49:33.154Z,42.74
2017-08-01T07:50:33.473Z,42.27
2017-08-01T07:51:33.173Z,42.09
2017-08-01T07:52:33.180Z,41.21
2017-08-01T07:53:33.167Z,43.44
2017-08-01T07:54:33.492Z,44.48
2017-08-01T07:55:33.504Z,46.46
2017-08-01T07:56:33.186Z,50.31
2017-08-01T07:57:33.203Z,53.38
2017-08-01T07:58:33.196Z,56.45
2017-08-01T07:59:33.525Z,58.75
2017-08-01T08:00:33.533Z,60.47
2017-08-01T08:01:33.534Z,62.77
2017-08-01T08:02:33.542Z,62.26
2017-08-01T08:03:33.544Z,60.9
2017-08-01T08:04:33.245Z,58.43
2017-08-01T08:05:33.243Z,59.05
2017-08-01T08:06:33.564Z,58.81
2017-08-01T08:07:33.246Z,56.5
2017-08-01T08:08:33.582Z,54.19
2017-08-01T08:09:33.574Z,51.87
2017-08-01T08:10:33.582Z,50.99
2017-08-01T08:11:33.316Z,51.97
2017-08-01T08:12:33.270Z,53.02
2017-08-01T08:13:33.602Z,52.6
2017-08-01T08:14:33.603Z,52.4
2017-08-01T08:15:33.626Z,53.94
2017-08-01T08:16:33.632Z,53.45
2017-08-01T08:17:33.619Z,55.3
2017-08-01T08:18:33.623Z,53.45
2017-08-01T08:19:33.632Z,52.77
2017-08-01T08:20:33.633Z,53.26
2017-08-01T08:21:33.542Z,54.33
2017-08-01T08:22:33.662Z,54.13
2017-08-01T08:23:33.654Z,53.65
2017-08-01T08:24:33.669Z,53.72
2017-08-01T08:25:33.665Z,52.75
2017-08-01T08:26:33.351Z,55.15
2017-08-01T08:27:33.675Z,55.54
2017-08-01T08:28:33.678Z,56.45
2017-08-01T08:29:33.379Z,60.24
2017-08-01T08:30:33.712Z,55.66
2017-08-01T08:31:33.720Z,54.6
2017-08-01T08:32:33.704Z,54.01
2017-08-01T08:33:33.729Z,53.62
2017-08-01T08:34:33.716Z,53.91
2017-08-01T08:35:33.425Z,54.76
2017-08-01T08:36:33.407Z,58.75
2017-08-01T08:37:33.734Z,60.57
2017-08-01T08:38:33.772Z,64.07
2017-08-01T08:39:33.746Z,65.3
2017-08-01T08:40:33.823Z,68.08
2017-08-01T08:41:33.785Z,70.61
2017-08-01T08:42:33.760Z,72.13
2017-08-01T08:43:33.490Z,73.58
2017-08-01T08:44:33.454Z,72.03
2017-08-01T08:45:33.778Z,72.19
2017-08-01T08:46:33.787Z,72.52
2017-08-01T08:47:33.791Z,72.87
2017-08-01T08:48:33.815Z,71.8
2017-08-01T08:49:33.802Z,74.13
2017-08-01T08:50:33.508Z,71.8
2017-08-01T08:51:33.496Z,73.42
2017-08-01T08:52:33.837Z,73.55
2017-08-01T08:53:33.818Z,74.91
2017-08-01T08:54:33.526Z,71.9
2017-08-01T08:55:33.825Z,69.86
2017-08-01T08:56:33.847Z,67.99
2017-08-01T08:57:33.838Z,70.35
2017-08-01T08:58:33.859Z,68.57
2017-08-01T08:59:33.542Z,68.7
2017-08-01T09:00:33.857Z,68.7
2017-08-01T09:01:33.873Z,67.31
2017-08-01T09:02:33.872Z,68.18
2017-08-01T09:03:33.881Z,69.44
2017-08-01T09:04:33.555Z,70.99
2017-08-01T09:05:33.890Z,71.58
2017-08-01T09:06:33.893Z,71.58
2017-08-01T09:07:33.907Z,69.86
2017-08-01T09:08:33.895Z,67.96
2017-08-01T09:09:33.904Z,67.76
2017-08-01T09:10:33.580Z,65.08
2017-08-01T09:11:33.906Z,64.49
2017-08-01T09:12:33.908Z,63.32
2017-08-01T09:13:33.935Z,62.94
2017-08-01T09:14:33.928Z,63.52
2017-08-01T09:15:33.923Z,63.42
2017-08-01T09:16:33.932Z,61.9
2017-08-01T09:17:33.940Z,62.19
2017-08-01T09:18:33.938Z,65.4
2017-08-01T09:19:33.952Z,67.24
2017-08-01T09:20:33.952Z,64.81
2017-08-01T09:21:33.955Z,63.49
2017-08-01T09:22:33.957Z,63
2017-08-01T09:23:33.983Z,61.05
2017-08-01T09:24:33.969Z,61.93
2017-08-01T09:25:33.651Z,62.03
2017-08-01T09:26:33.657Z,62.32
2017-08-01T09:27:33.985Z,61.54
2017-08-01T09:28:33.985Z,61.35
2017-08-01T09:29:33.995Z,60.28
2017-08-01T09:30:34.001Z,62.71
2017-08-01T09:31:34.003Z,63.78
2017-08-01T09:32:34.028Z,65.53
2017-08-01T09:33:33.692Z,67.7
2017-08-01T09:34:33.697Z,62.45
2017-08-01T09:35:34.021Z,60.5
2017-08-01T09:36:34.030Z,60.7
2017-08-01T09:37:34.032Z,60.21
2017-08-01T09:38:34.038Z,59.33
2017-08-01T09:39:34.042Z,58.87
2017-08-01T09:40:34.050Z,60.24
2017-08-01T09:41:34.064Z,61.7
2017-08-01T09:42:34.084Z,63.65
2017-08-01T09:43:34.062Z,62.67
2017-08-01T09:44:33.750Z,60.53
2017-08-01T09:45:34.076Z,58.78
2017-08-01T09:46:34.081Z,58.69
2017-08-01T09:47:34.084Z,61.05
2017-08-01T09:48:34.091Z,60.36
2017-08-01T09:49:33.779Z,56.79
2017-08-01T09:50:34.116Z,59.69
2017-08-01T09:51:34.127Z,60.46
2017-08-01T09:52:34.129Z,59.88
2017-08-01T09:53:34.118Z,58.91
2017-08-01T09:54:34.127Z,59.2
2017-08-01T09:55:34.137Z,59.88
2017-08-01T09:56:34.157Z,59.13
2017-08-01T09:57:33.823Z,58.74
2017-08-01T09:58:34.167Z,57.09
2017-08-01T09:59:33.835Z,56.82
2017-08-01T10:00:33.840Z,53.99
2017-08-01T10:01:33.848Z,54.26
2017-08-01T10:02:34.172Z,53.77
2017-08-01T10:03:34.178Z,54.13
2017-08-01T10:04:34.183Z,55.01
2017-08-01T10:05:34.190Z,54.23
2017-08-01T10:06:34.210Z,55.11
2017-08-01T10:07:33.899Z,55.01
2017-08-01T10:08:34.209Z,58.87
2017-08-01T10:09:34.214Z,59.17
2017-08-01T10:10:34.222Z,57.9
2017-08-01T10:11:34.235Z,56.57
2017-08-01T10:12:34.233Z,56.67
2017-08-01T10:13:33.918Z,57.84
2017-08-01T10:14:34.246Z,57.18
2017-08-01T10:15:34.253Z,55.72
2017-08-01T10:16:33.949Z,56.3
2017-08-01T10:17:34.282Z,57.47
2017-08-01T10:18:34.277Z,54.94
2017-08-01T10:19:34.273Z,54.85
2017-08-01T10:20:34.277Z,54.26
2017-08-01T10:21:33.967Z,57.6
2017-08-01T10:22:34.296Z,55.62
2017-08-01T10:23:34.295Z,52.7
2017-08-01T10:24:33.985Z,54.26
2017-08-01T10:25:33.990Z,56.21
2017-08-01T10:26:34.318Z,56.92
2017-08-01T10:27:34.326Z,54.38
2017-08-01T10:28:34.330Z,52.24
2017-08-01T10:29:34.331Z,56.82
2017-08-01T10:30:34.343Z,57.01
2017-08-01T10:31:34.361Z,54.09
2017-08-01T10:32:34.351Z,53.99
2017-08-01T10:33:34.038Z,55.16
2017-08-01T10:34:34.375Z,57.21
2017-08-01T10:35:34.370Z,60.52
2017-08-01T10:36:34.374Z,60.23
2017-08-01T10:37:34.399Z,56.62
2017-08-01T10:38:34.403Z,56.52
2017-08-01T10:39:34.089Z,56.07
2017-08-01T10:40:34.402Z,52.66
2017-08-01T10:41:34.408Z,51.97
2017-08-01T10:42:34.412Z,52.36
2017-08-01T10:43:34.417Z,50.9
2017-08-01T10:44:34.167Z,52.53
2017-08-01T10:45:34.453Z,51.97
2017-08-01T10:46:34.438Z,52.56
2017-08-01T10:47:34.465Z,52.17
2017-08-01T10:48:34.453Z,52.36
2017-08-01T10:49:34.472Z,54.21
2017-08-01T10:50:34.484Z,54.24
2017-08-01T10:51:34.471Z,51.87
2017-08-01T10:52:34.155Z,49.93
2017-08-01T10:53:34.481Z,51.19
2017-08-01T10:54:34.502Z,52.36
2017-08-01T10:55:34.174Z,54.11
2017-08-01T10:56:34.521Z,51.19
2017-08-01T10:57:34.190Z,52.07
2017-08-01T10:58:34.518Z,52.36
2017-08-01T10:59:34.518Z,52.36
2017-08-01T11:00:34.528Z,52.26
2017-08-01T11:01:34.537Z,52.95
2017-08-01T11:02:34.541Z,52.66
2017-08-01T11:03:34.239Z,50.82
2017-08-01T11:04:34.551Z,53.07
2017-08-01T11:05:34.581Z,51.31
2017-08-01T11:06:34.565Z,50.04
2017-08-01T11:07:34.252Z,51.31
2017-08-01T11:08:34.578Z,52
2017-08-01T11:09:34.601Z,50.63
2017-08-01T11:10:34.271Z,48.88
2017-08-01T11:11:34.277Z,47.71
2017-08-01T11:12:34.606Z,49.17
2017-08-01T11:13:34.616Z,51.7
2017-08-01T11:14:34.624Z,49.95
2017-08-01T11:15:34.631Z,50.24
2017-08-01T11:16:34.310Z,49.37
2017-08-01T11:17:34.641Z,48.88
2017-08-01T11:18:34.324Z,48.1
2017-08-01T11:19:34.653Z,48.12
2017-08-01T11:20:34.656Z,47.44
2017-08-01T11:21:34.663Z,47.83
2017-08-01T11:22:34.671Z,46.26
2017-08-01T11:23:34.678Z,46.34
2017-08-01T11:24:34.362Z,46.73
2017-08-01T11:25:34.690Z,47.02
2017-08-01T11:26:34.378Z,46.83
2017-08-01T11:27:34.387Z,47.71
2017-08-01T11:28:34.391Z,47.63
2017-08-01T11:29:34.450Z,46.75
2017-08-01T11:30:34.724Z,46.26
2017-08-01T11:31:34.412Z,47.44
2017-08-01T11:32:34.418Z,47.73
2017-08-01T11:33:34.774Z,48.32
2017-08-01T11:34:34.434Z,47.83
2017-08-01T11:35:34.442Z,46.26
2017-08-01T11:36:34.768Z,45.02
2017-08-01T11:37:34.775Z,43.24
2017-08-01T11:38:34.785Z,42.55
2017-08-01T11:39:34.784Z,43.43
2017-08-01T11:40:34.794Z,43.63
2017-08-01T11:41:34.481Z,40.6
2017-08-01T11:42:34.855Z,42.26
2017-08-01T11:43:34.824Z,42.36
2017-08-01T11:44:34.841Z,44.51
2017-08-01T11:45:34.845Z,41.19
2017-08-01T11:46:34.516Z,41.87
2017-08-01T11:47:34.522Z,41.67
2017-08-01T11:48:34.530Z,40.89
2017-08-01T11:49:34.858Z,36.6
2017-08-01T11:50:34.863Z,36.7
2017-08-01T11:51:34.890Z,36.21
2017-08-01T11:52:34.555Z,39.22
2017-08-01T11:53:34.884Z,39.8
2017-08-01T11:54:34.893Z,39.41
2017-08-01T11:55:34.922Z,40.09
2017-08-01T11:56:34.904Z,39.72
2017-08-01T11:57:34.589Z,39.92
2017-08-01T11:58:34.634Z,38.26
2017-08-01T11:59:34.928Z,37.67
2017-08-01T12:00:34.935Z,38.94
2017-08-01T12:01:34.944Z,37.87
2017-08-01T12:02:34.953Z,36.7
2017-08-01T12:03:34.966Z,35.43
2017-08-01T12:04:34.962Z,34.75
2017-08-01T12:05:34.973Z,34.92
2017-08-01T12:06:34.980Z,35.22
2017-08-01T12:07:34.980Z,38.34
2017-08-01T12:08:34.666Z,35.02
2017-08-01T12:09:35.000Z,33.56
2017-08-01T12:10:35.003Z,32.78
2017-08-01T12:11:34.690Z,33.36
2017-08-01T12:12:34.696Z,35.22
2017-08-01T12:13:35.026Z,39.31
2017-08-01T12:14:35.035Z,35.14
2017-08-01T12:15:35.050Z,34.53
2017-08-01T12:16:35.064Z,36.39
2017-08-01T12:17:34.754Z,35.9
2017-08-01T12:18:35.075Z,35.92
2017-08-01T12:19:35.067Z,35.31
2017-08-01T12:20:35.092Z,35.51
2017-08-01T12:21:35.091Z,34.45
2017-08-01T12:22:35.088Z,35.53
2017-08-01T12:23:34.791Z,35.53
2017-08-01T12:24:35.133Z,33.58
2017-08-01T12:25:35.137Z,34.65
2017-08-01T12:26:35.113Z,35.33
2017-08-01T12:27:34.801Z,35.43
2017-08-01T12:28:34.808Z,36.8
2017-08-01T12:29:35.134Z,37.19
2017-08-01T12:30:35.149Z,34.16
2017-08-01T12:31:35.149Z,33.67
2017-08-01T12:32:34.835Z,34.16
2017-08-01T12:33:34.841Z,35.14
2017-08-01T12:34:35.176Z,37.38
2017-08-01T12:35:35.174Z,37.77
2017-08-01T12:36:35.188Z,36.41
2017-08-01T12:37:35.188Z,34.65
2017-08-01T12:38:35.194Z,32.6
2017-08-01T12:39:35.210Z,33.28
2017-08-01T12:40:34.894Z,35.24
2017-08-01T12:41:35.240Z,35.14
2017-08-01T12:42:35.251Z,38.28
2017-08-01T12:43:34.913Z,39.33
2017-08-01T12:44:35.238Z,34.84
2017-08-01T12:45:35.243Z,35.43
2017-08-01T12:46:35.292Z,36.6
2017-08-01T12:47:34.950Z,36.21
2017-08-01T12:48:35.264Z,36.6
2017-08-01T12:49:34.955Z,35.82
2017-08-01T12:50:34.962Z,33.28
2017-08-01T12:51:35.287Z,32.5
2017-08-01T12:52:35.294Z,32.4
2017-08-01T12:53:35.304Z,33.18
2017-08-01T12:54:35.314Z,34.55